sensor_id;sensor_type;location;lat;lon;timestamp;P1;durP1;ratioP1;P2;durP2;ratioP2
26750;SDS011;14345;48.272;25.926;2023-12-07T00:02:20;34.58;;;26.17;;
26750;SDS011;14345;48.272;25.926;2023-12-07T00:04:46;37.15;;;27.80;;
26750;SDS011;14345;48.272;25.926;2023-12-07T00:07:12;37.17;;;27.25;;
26750;SDS011;14345;48.272;25.926;2023-12-07T00:09:38;32.45;;;25.45;;
26750;SDS011;14345;48.272;25.926;2023-12-07T00:12:04;34.80;;;25.45;;
26750;SDS011;14345;48.272;25.926;2023-12-07T00:14:31;32.92;;;25.38;;
26750;SDS011;14345;48.272;25.926;2023-12-07T00:16:57;33.38;;;24.48;;
26750;SDS011;14345;48.272;25.926;2023-12-07T00:19:23;31.70;;;23.45;;
26750;SDS011;14345;48.272;25.926;2023-12-07T00:21:49;34.83;;;25.95;;
26750;SDS011;14345;48.272;25.926;2023-12-07T00:24:15;36.65;;;26.20;;
26750;SDS011;14345;48.272;25.926;2023-12-07T00:26:41;33.40;;;25.10;;
26750;SDS011;14345;48.272;25.926;2023-12-07T00:29:07;35.75;;;26.13;;
26750;SDS011;14345;48.272;25.926;2023-12-07T00:31:33;34.15;;;24.75;;
26750;SDS011;14345;48.272;25.926;2023-12-07T00:33:59;32.63;;;25.40;;
26750;SDS011;14345;48.272;25.926;2023-12-07T00:36:25;38.20;;;26.58;;
26750;SDS011;14345;48.272;25.926;2023-12-07T00:38:51;35.15;;;25.30;;
26750;SDS011;14345;48.272;25.926;2023-12-07T00:41:17;33.65;;;24.70;;
26750;SDS011;14345;48.272;25.926;2023-12-07T00:43:44;33.55;;;24.50;;
26750;SDS011;14345;48.272;25.926;2023-12-07T00:46:10;32.92;;;24.92;;
26750;SDS011;14345;48.272;25.926;2023-12-07T00:48:36;38.92;;;25.80;;
26750;SDS011;14345;48.272;25.926;2023-12-07T00:51:02;34.42;;;25.75;;
26750;SDS011;14345;48.272;25.926;2023-12-07T00:53:28;34.95;;;26.65;;
26750;SDS011;14345;48.272;25.926;2023-12-07T00:55:55;35.92;;;26.13;;
26750;SDS011;14345;48.272;25.926;2023-12-07T00:58:21;34.63;;;25.15;;
26750;SDS011;14345;48.272;25.926;2023-12-07T01:00:48;35.67;;;26.05;;
26750;SDS011;14345;48.272;25.926;2023-12-07T01:03:14;33.47;;;25.92;;
26750;SDS011;14345;48.272;25.926;2023-12-07T01:05:40;32.80;;;24.90;;
26750;SDS011;14345;48.272;25.926;2023-12-07T01:08:06;34.85;;;24.92;;
26750;SDS011;14345;48.272;25.926;2023-12-07T01:10:32;37.35;;;26.60;;
26750;SDS011;14345;48.272;25.926;2023-12-07T01:12:58;35.97;;;26.65;;
26750;SDS011;14345;48.272;25.926;2023-12-07T01:15:24;37.00;;;25.98;;
26750;SDS011;14345;48.272;25.926;2023-12-07T01:17:50;35.95;;;25.42;;
26750;SDS011;14345;48.272;25.926;2023-12-07T01:20:16;33.45;;;25.83;;
26750;SDS011;14345;48.272;25.926;2023-12-07T01:22:42;34.78;;;25.95;;
26750;SDS011;14345;48.272;25.926;2023-12-07T01:25:10;34.10;;;26.77;;
26750;SDS011;14345;48.272;25.926;2023-12-07T01:27:36;34.55;;;25.00;;
26750;SDS011;14345;48.272;25.926;2023-12-07T01:30:03;37.30;;;27.25;;
26750;SDS011;14345;48.272;25.926;2023-12-07T01:32:29;38.72;;;26.13;;
26750;SDS011;14345;48.272;25.926;2023-12-07T01:34:55;35.72;;;25.73;;
26750;SDS011;14345;48.272;25.926;2023-12-07T01:37:21;35.45;;;25.27;;
26750;SDS011;14345;48.272;25.926;2023-12-07T01:39:48;34.95;;;26.20;;
26750;SDS011;14345;48.272;25.926;2023-12-07T01:42:14;34.08;;;25.45;;
26750;SDS011;14345;48.272;25.926;2023-12-07T01:44:40;36.05;;;26.48;;
26750;SDS011;14345;48.272;25.926;2023-12-07T01:47:07;34.97;;;24.83;;
26750;SDS011;14345;48.272;25.926;2023-12-07T01:49:34;36.25;;;26.35;;
26750;SDS011;14345;48.272;25.926;2023-12-07T01:52:00;37.10;;;25.30;;
26750;SDS011;14345;48.272;25.926;2023-12-07T01:54:27;34.38;;;24.65;;
26750;SDS011;14345;48.272;25.926;2023-12-07T01:56:54;35.38;;;25.88;;
26750;SDS011;14345;48.272;25.926;2023-12-07T01:59:21;32.22;;;24.48;;
26750;SDS011;14345;48.272;25.926;2023-12-07T02:01:47;35.30;;;26.02;;
26750;SDS011;14345;48.272;25.926;2023-12-07T02:04:13;36.72;;;26.20;;
26750;SDS011;14345;48.272;25.926;2023-12-07T02:06:39;34.55;;;25.88;;
26750;SDS011;14345;48.272;25.926;2023-12-07T02:09:05;37.80;;;27.83;;
26750;SDS011;14345;48.272;25.926;2023-12-07T02:11:31;34.38;;;25.38;;
26750;SDS011;14345;48.272;25.926;2023-12-07T02:13:57;32.25;;;24.70;;
26750;SDS011;14345;48.272;25.926;2023-12-07T02:16:26;34.88;;;25.75;;
26750;SDS011;14345;48.272;25.926;2023-12-07T02:21:22;36.33;;;26.83;;
26750;SDS011;14345;48.272;25.926;2023-12-07T02:23:51;35.20;;;26.20;;
26750;SDS011;14345;48.272;25.926;2023-12-07T02:26:18;38.85;;;27.65;;
26750;SDS011;14345;48.272;25.926;2023-12-07T02:28:53;37.85;;;26.40;;
26750;SDS011;14345;48.272;25.926;2023-12-07T02:31:20;35.22;;;26.65;;
26750;SDS011;14345;48.272;25.926;2023-12-07T02:33:46;35.78;;;25.55;;
26750;SDS011;14345;48.272;25.926;2023-12-07T02:36:12;36.78;;;26.60;;
26750;SDS011;14345;48.272;25.926;2023-12-07T02:38:39;37.42;;;26.75;;
26750;SDS011;14345;48.272;25.926;2023-12-07T02:41:05;35.97;;;24.90;;
26750;SDS011;14345;48.272;25.926;2023-12-07T02:43:31;36.63;;;24.92;;
26750;SDS011;14345;48.272;25.926;2023-12-07T02:45:58;36.88;;;26.65;;
26750;SDS011;14345;48.272;25.926;2023-12-07T02:48:24;38.60;;;26.90;;
26750;SDS011;14345;48.272;25.926;2023-12-07T02:50:51;35.83;;;25.60;;
26750;SDS011;14345;48.272;25.926;2023-12-07T02:53:17;42.38;;;26.85;;
26750;SDS011;14345;48.272;25.926;2023-12-07T02:55:43;39.00;;;26.90;;
26750;SDS011;14345;48.272;25.926;2023-12-07T02:58:09;38.58;;;27.38;;
26750;SDS011;14345;48.272;25.926;2023-12-07T03:00:36;38.95;;;26.90;;
26750;SDS011;14345;48.272;25.926;2023-12-07T03:03:02;40.35;;;28.13;;
26750;SDS011;14345;48.272;25.926;2023-12-07T03:05:28;41.10;;;25.52;;
26750;SDS011;14345;48.272;25.926;2023-12-07T03:07:54;38.60;;;26.17;;
26750;SDS011;14345;48.272;25.926;2023-12-07T03:10:20;37.38;;;26.83;;
26750;SDS011;14345;48.272;25.926;2023-12-07T03:12:46;39.42;;;27.42;;
26750;SDS011;14345;48.272;25.926;2023-12-07T03:15:12;36.60;;;26.23;;
26750;SDS011;14345;48.272;25.926;2023-12-07T03:17:38;36.50;;;25.52;;
26750;SDS011;14345;48.272;25.926;2023-12-07T03:20:04;40.35;;;27.13;;
26750;SDS011;14345;48.272;25.926;2023-12-07T03:22:31;35.42;;;25.83;;
26750;SDS011;14345;48.272;25.926;2023-12-07T03:24:57;36.50;;;27.38;;
26750;SDS011;14345;48.272;25.926;2023-12-07T03:27:23;35.50;;;26.42;;
26750;SDS011;14345;48.272;25.926;2023-12-07T03:29:49;34.85;;;26.48;;
26750;SDS011;14345;48.272;25.926;2023-12-07T03:32:16;35.13;;;24.85;;
26750;SDS011;14345;48.272;25.926;2023-12-07T03:34:42;37.38;;;26.10;;
26750;SDS011;14345;48.272;25.926;2023-12-07T03:37:08;37.38;;;27.30;;
26750;SDS011;14345;48.272;25.926;2023-12-07T03:39:34;36.08;;;25.63;;
26750;SDS011;14345;48.272;25.926;2023-12-07T03:42:00;36.22;;;25.63;;
26750;SDS011;14345;48.272;25.926;2023-12-07T03:44:27;37.60;;;26.92;;
26750;SDS011;14345;48.272;25.926;2023-12-07T03:46:54;38.67;;;25.58;;
26750;SDS011;14345;48.272;25.926;2023-12-07T03:49:20;35.17;;;25.92;;
26750;SDS011;14345;48.272;25.926;2023-12-07T03:51:46;34.95;;;24.92;;
26750;SDS011;14345;48.272;25.926;2023-12-07T03:54:12;35.72;;;25.23;;
26750;SDS011;14345;48.272;25.926;2023-12-07T03:56:38;35.67;;;24.73;;
26750;SDS011;14345;48.272;25.926;2023-12-07T03:59:06;35.40;;;25.98;;
26750;SDS011;14345;48.272;25.926;2023-12-07T04:01:32;34.08;;;24.27;;
26750;SDS011;14345;48.272;25.926;2023-12-07T04:03:58;37.70;;;27.30;;
26750;SDS011;14345;48.272;25.926;2023-12-07T04:06:25;37.15;;;27.42;;
26750;SDS011;14345;48.272;25.926;2023-12-07T04:08:52;36.50;;;26.17;;
26750;SDS011;14345;48.272;25.926;2023-12-07T04:11:18;37.05;;;27.20;;
26750;SDS011;14345;48.272;25.926;2023-12-07T04:13:44;38.55;;;27.58;;
26750;SDS011;14345;48.272;25.926;2023-12-07T04:16:10;39.80;;;27.73;;
26750;SDS011;14345;48.272;25.926;2023-12-07T04:18:37;38.35;;;27.83;;
26750;SDS011;14345;48.272;25.926;2023-12-07T04:21:03;41.15;;;28.15;;
26750;SDS011;14345;48.272;25.926;2023-12-07T04:23:30;37.40;;;27.15;;
26750;SDS011;14345;48.272;25.926;2023-12-07T04:25:56;37.28;;;26.70;;
26750;SDS011;14345;48.272;25.926;2023-12-07T04:28:22;36.17;;;26.40;;
26750;SDS011;14345;48.272;25.926;2023-12-07T04:30:48;41.85;;;28.23;;
26750;SDS011;14345;48.272;25.926;2023-12-07T04:33:14;38.80;;;26.55;;
26750;SDS011;14345;48.272;25.926;2023-12-07T04:35:41;37.50;;;26.75;;
26750;SDS011;14345;48.272;25.926;2023-12-07T04:38:07;36.53;;;25.08;;
26750;SDS011;14345;48.272;25.926;2023-12-07T04:40:33;32.90;;;24.63;;
26750;SDS011;14345;48.272;25.926;2023-12-07T04:42:59;38.13;;;28.52;;
26750;SDS011;14345;48.272;25.926;2023-12-07T04:45:25;38.63;;;27.20;;
26750;SDS011;14345;48.272;25.926;2023-12-07T04:47:51;37.78;;;26.90;;
26750;SDS011;14345;48.272;25.926;2023-12-07T04:50:17;36.53;;;26.90;;
26750;SDS011;14345;48.272;25.926;2023-12-07T04:52:44;39.30;;;26.90;;
26750;SDS011;14345;48.272;25.926;2023-12-07T04:55:10;38.85;;;27.83;;
26750;SDS011;14345;48.272;25.926;2023-12-07T04:57:36;37.42;;;26.67;;
26750;SDS011;14345;48.272;25.926;2023-12-07T05:00:02;39.78;;;27.77;;
26750;SDS011;14345;48.272;25.926;2023-12-07T05:02:32;37.80;;;27.77;;
26750;SDS011;14345;48.272;25.926;2023-12-07T05:04:58;37.08;;;27.10;;
26750;SDS011;14345;48.272;25.926;2023-12-07T05:07:24;41.78;;;28.45;;
26750;SDS011;14345;48.272;25.926;2023-12-07T05:09:50;36.42;;;26.30;;
26750;SDS011;14345;48.272;25.926;2023-12-07T05:12:16;37.42;;;26.75;;
26750;SDS011;14345;48.272;25.926;2023-12-07T05:14:43;39.00;;;27.35;;
26750;SDS011;14345;48.272;25.926;2023-12-07T05:17:09;37.45;;;26.63;;
26750;SDS011;14345;48.272;25.926;2023-12-07T05:19:35;84.60;;;57.50;;
26750;SDS011;14345;48.272;25.926;2023-12-07T05:22:01;92.18;;;62.67;;
26750;SDS011;14345;48.272;25.926;2023-12-07T05:24:27;51.03;;;36.38;;
26750;SDS011;14345;48.272;25.926;2023-12-07T05:26:53;39.75;;;29.02;;
26750;SDS011;14345;48.272;25.926;2023-12-07T05:29:19;37.05;;;28.13;;
26750;SDS011;14345;48.272;25.926;2023-12-07T05:31:48;38.17;;;27.73;;
26750;SDS011;14345;48.272;25.926;2023-12-07T05:34:15;38.08;;;28.35;;
26750;SDS011;14345;48.272;25.926;2023-12-07T05:36:41;36.05;;;26.35;;
26750;SDS011;14345;48.272;25.926;2023-12-07T05:39:07;38.67;;;26.80;;
26750;SDS011;14345;48.272;25.926;2023-12-07T05:41:33;47.78;;;33.67;;
26750;SDS011;14345;48.272;25.926;2023-12-07T05:43:59;51.83;;;35.88;;
26750;SDS011;14345;48.272;25.926;2023-12-07T05:46:25;151.00;;;97.50;;
26750;SDS011;14345;48.272;25.926;2023-12-07T05:48:51;119.65;;;79.88;;
26750;SDS011;14345;48.272;25.926;2023-12-07T05:51:17;52.88;;;36.78;;
26750;SDS011;14345;48.272;25.926;2023-12-07T05:53:45;45.17;;;30.30;;
26750;SDS011;14345;48.272;25.926;2023-12-07T05:56:11;40.83;;;28.98;;
26750;SDS011;14345;48.272;25.926;2023-12-07T05:58:38;36.63;;;27.13;;
26750;SDS011;14345;48.272;25.926;2023-12-07T06:01:04;42.40;;;30.05;;
26750;SDS011;14345;48.272;25.926;2023-12-07T06:03:30;42.38;;;29.08;;
26750;SDS011;14345;48.272;25.926;2023-12-07T06:05:57;39.58;;;28.10;;
26750;SDS011;14345;48.272;25.926;2023-12-07T06:08:23;38.50;;;27.27;;
26750;SDS011;14345;48.272;25.926;2023-12-07T06:10:49;41.38;;;27.73;;
26750;SDS011;14345;48.272;25.926;2023-12-07T06:13:15;37.80;;;26.58;;
26750;SDS011;14345;48.272;25.926;2023-12-07T06:15:41;38.80;;;28.45;;
26750;SDS011;14345;48.272;25.926;2023-12-07T06:18:07;40.00;;;28.52;;
26750;SDS011;14345;48.272;25.926;2023-12-07T06:20:33;43.13;;;29.08;;
26750;SDS011;14345;48.272;25.926;2023-12-07T06:23:00;38.40;;;27.08;;
26750;SDS011;14345;48.272;25.926;2023-12-07T06:25:27;39.88;;;27.17;;
26750;SDS011;14345;48.272;25.926;2023-12-07T06:27:53;40.60;;;27.90;;
26750;SDS011;14345;48.272;25.926;2023-12-07T06:30:21;42.70;;;28.85;;
26750;SDS011;14345;48.272;25.926;2023-12-07T06:32:47;44.35;;;29.15;;
26750;SDS011;14345;48.272;25.926;2023-12-07T06:35:13;50.03;;;31.33;;
26750;SDS011;14345;48.272;25.926;2023-12-07T06:37:40;38.28;;;26.80;;
26750;SDS011;14345;48.272;25.926;2023-12-07T06:40:08;40.35;;;26.35;;
26750;SDS011;14345;48.272;25.926;2023-12-07T06:42:35;43.75;;;28.73;;
26750;SDS011;14345;48.272;25.926;2023-12-07T06:45:01;40.83;;;29.13;;
26750;SDS011;14345;48.272;25.926;2023-12-07T06:47:28;40.50;;;27.52;;
26750;SDS011;14345;48.272;25.926;2023-12-07T06:49:54;39.95;;;27.10;;
26750;SDS011;14345;48.272;25.926;2023-12-07T06:52:23;36.55;;;26.05;;
26750;SDS011;14345;48.272;25.926;2023-12-07T06:54:49;37.50;;;27.58;;
26750;SDS011;14345;48.272;25.926;2023-12-07T06:57:15;36.80;;;27.17;;
26750;SDS011;14345;48.272;25.926;2023-12-07T06:59:42;38.25;;;27.27;;
26750;SDS011;14345;48.272;25.926;2023-12-07T07:02:08;39.13;;;26.85;;
26750;SDS011;14345;48.272;25.926;2023-12-07T07:04:34;38.72;;;27.85;;
26750;SDS011;14345;48.272;25.926;2023-12-07T07:07:00;39.28;;;26.85;;
26750;SDS011;14345;48.272;25.926;2023-12-07T07:09:26;40.45;;;27.85;;
26750;SDS011;14345;48.272;25.926;2023-12-07T07:11:52;40.10;;;27.25;;
26750;SDS011;14345;48.272;25.926;2023-12-07T07:14:18;38.90;;;27.27;;
26750;SDS011;14345;48.272;25.926;2023-12-07T07:16:44;38.05;;;27.65;;
26750;SDS011;14345;48.272;25.926;2023-12-07T07:19:11;42.17;;;28.08;;
26750;SDS011;14345;48.272;25.926;2023-12-07T07:21:37;41.58;;;27.33;;
26750;SDS011;14345;48.272;25.926;2023-12-07T07:24:03;41.70;;;28.08;;
26750;SDS011;14345;48.272;25.926;2023-12-07T07:26:29;41.10;;;29.27;;
26750;SDS011;14345;48.272;25.926;2023-12-07T07:28:55;41.72;;;29.00;;
26750;SDS011;14345;48.272;25.926;2023-12-07T07:31:21;41.45;;;29.25;;
26750;SDS011;14345;48.272;25.926;2023-12-07T07:33:47;44.13;;;31.50;;
26750;SDS011;14345;48.272;25.926;2023-12-07T07:36:13;47.55;;;32.45;;
26750;SDS011;14345;48.272;25.926;2023-12-07T07:38:42;41.45;;;29.30;;
26750;SDS011;14345;48.272;25.926;2023-12-07T07:41:09;40.30;;;29.27;;
26750;SDS011;14345;48.272;25.926;2023-12-07T07:43:36;42.08;;;30.15;;
26750;SDS011;14345;48.272;25.926;2023-12-07T07:46:06;40.03;;;28.38;;
26750;SDS011;14345;48.272;25.926;2023-12-07T07:48:33;39.03;;;26.95;;
26750;SDS011;14345;48.272;25.926;2023-12-07T07:50:59;42.75;;;28.80;;
26750;SDS011;14345;48.272;25.926;2023-12-07T07:53:25;42.33;;;27.60;;
26750;SDS011;14345;48.272;25.926;2023-12-07T07:55:52;41.47;;;28.52;;
26750;SDS011;14345;48.272;25.926;2023-12-07T07:58:18;37.95;;;26.52;;
26750;SDS011;14345;48.272;25.926;2023-12-07T08:00:44;38.25;;;26.05;;
26750;SDS011;14345;48.272;25.926;2023-12-07T08:03:11;37.13;;;25.15;;
26750;SDS011;14345;48.272;25.926;2023-12-07T08:05:38;37.50;;;25.70;;
26750;SDS011;14345;48.272;25.926;2023-12-07T08:08:04;40.10;;;26.23;;
26750;SDS011;14345;48.272;25.926;2023-12-07T08:10:30;39.28;;;27.15;;
26750;SDS011;14345;48.272;25.926;2023-12-07T08:12:56;43.20;;;29.23;;
26750;SDS011;14345;48.272;25.926;2023-12-07T08:15:22;39.47;;;27.98;;
26750;SDS011;14345;48.272;25.926;2023-12-07T08:17:48;40.80;;;28.13;;
26750;SDS011;14345;48.272;25.926;2023-12-07T08:20:15;39.60;;;27.73;;
26750;SDS011;14345;48.272;25.926;2023-12-07T08:22:41;40.47;;;28.27;;
26750;SDS011;14345;48.272;25.926;2023-12-07T08:25:08;38.05;;;27.25;;
26750;SDS011;14345;48.272;25.926;2023-12-07T08:27:34;43.85;;;28.23;;
26750;SDS011;14345;48.272;25.926;2023-12-07T08:30:02;38.22;;;27.55;;
26750;SDS011;14345;48.272;25.926;2023-12-07T08:32:28;37.15;;;26.52;;
26750;SDS011;14345;48.272;25.926;2023-12-07T08:34:54;39.53;;;26.95;;
26750;SDS011;14345;48.272;25.926;2023-12-07T08:37:20;41.75;;;28.27;;
26750;SDS011;14345;48.272;25.926;2023-12-07T08:39:46;41.70;;;28.95;;
26750;SDS011;14345;48.272;25.926;2023-12-07T08:42:13;41.22;;;28.77;;
26750;SDS011;14345;48.272;25.926;2023-12-07T08:44:39;39.90;;;26.65;;
26750;SDS011;14345;48.272;25.926;2023-12-07T08:47:06;41.25;;;27.95;;
26750;SDS011;14345;48.272;25.926;2023-12-07T08:49:32;35.95;;;25.90;;
26750;SDS011;14345;48.272;25.926;2023-12-07T08:51:58;37.30;;;26.20;;
26750;SDS011;14345;48.272;25.926;2023-12-07T08:54:24;40.72;;;27.15;;
26750;SDS011;14345;48.272;25.926;2023-12-07T08:56:51;42.60;;;28.83;;
26750;SDS011;14345;48.272;25.926;2023-12-07T08:59:17;40.63;;;27.73;;
26750;SDS011;14345;48.272;25.926;2023-12-07T09:01:43;41.45;;;27.67;;
26750;SDS011;14345;48.272;25.926;2023-12-07T09:04:09;46.55;;;31.20;;
26750;SDS011;14345;48.272;25.926;2023-12-07T09:06:36;44.58;;;29.20;;
26750;SDS011;14345;48.272;25.926;2023-12-07T09:09:03;43.58;;;28.92;;
26750;SDS011;14345;48.272;25.926;2023-12-07T09:11:29;45.10;;;28.60;;
26750;SDS011;14345;48.272;25.926;2023-12-07T09:13:55;40.63;;;28.15;;
26750;SDS011;14345;48.272;25.926;2023-12-07T09:16:21;41.42;;;28.05;;
26750;SDS011;14345;48.272;25.926;2023-12-07T09:18:48;40.40;;;28.20;;
26750;SDS011;14345;48.272;25.926;2023-12-07T09:21:14;41.28;;;28.35;;
26750;SDS011;14345;48.272;25.926;2023-12-07T09:23:40;44.53;;;29.17;;
26750;SDS011;14345;48.272;25.926;2023-12-07T09:26:06;43.28;;;30.08;;
26750;SDS011;14345;48.272;25.926;2023-12-07T09:28:33;41.53;;;29.52;;
26750;SDS011;14345;48.272;25.926;2023-12-07T09:30:59;43.17;;;28.60;;
26750;SDS011;14345;48.272;25.926;2023-12-07T09:33:25;37.88;;;26.85;;
26750;SDS011;14345;48.272;25.926;2023-12-07T09:35:51;40.13;;;27.08;;
26750;SDS011;14345;48.272;25.926;2023-12-07T09:38:17;41.22;;;28.35;;
26750;SDS011;14345;48.272;25.926;2023-12-07T09:40:43;40.13;;;26.95;;
26750;SDS011;14345;48.272;25.926;2023-12-07T09:43:11;36.33;;;25.70;;
26750;SDS011;14345;48.272;25.926;2023-12-07T09:45:37;40.20;;;25.77;;
26750;SDS011;14345;48.272;25.926;2023-12-07T09:48:03;36.83;;;25.42;;
26750;SDS011;14345;48.272;25.926;2023-12-07T09:50:30;36.42;;;25.38;;
26750;SDS011;14345;48.272;25.926;2023-12-07T09:52:57;41.17;;;27.67;;
26750;SDS011;14345;48.272;25.926;2023-12-07T09:55:23;44.13;;;29.15;;
26750;SDS011;14345;48.272;25.926;2023-12-07T09:57:52;38.22;;;27.00;;
26750;SDS011;14345;48.272;25.926;2023-12-07T10:00:22;38.60;;;26.02;;
26750;SDS011;14345;48.272;25.926;2023-12-07T10:02:48;35.92;;;25.20;;
26750;SDS011;14345;48.272;25.926;2023-12-07T10:05:15;36.67;;;24.92;;
26750;SDS011;14345;48.272;25.926;2023-12-07T10:07:45;36.08;;;24.65;;
26750;SDS011;14345;48.272;25.926;2023-12-07T10:10:14;37.20;;;25.40;;
26750;SDS011;14345;48.272;25.926;2023-12-07T10:12:48;37.10;;;24.27;;
26750;SDS011;14345;48.272;25.926;2023-12-07T10:15:17;43.47;;;29.85;;
26750;SDS011;14345;48.272;25.926;2023-12-07T10:17:45;48.33;;;28.50;;
26750;SDS011;14345;48.272;25.926;2023-12-07T10:20:13;41.65;;;26.88;;
26750;SDS011;14345;48.272;25.926;2023-12-07T10:22:39;44.38;;;30.35;;
26750;SDS011;14345;48.272;25.926;2023-12-07T10:25:07;37.63;;;25.98;;
26750;SDS011;14345;48.272;25.926;2023-12-07T10:27:33;39.70;;;27.35;;
26750;SDS011;14345;48.272;25.926;2023-12-07T10:30:00;37.35;;;26.38;;
26750;SDS011;14345;48.272;25.926;2023-12-07T10:32:26;41.22;;;26.67;;
26750;SDS011;14345;48.272;25.926;2023-12-07T10:34:52;44.35;;;29.58;;
26750;SDS011;14345;48.272;25.926;2023-12-07T10:37:21;39.03;;;26.17;;
26750;SDS011;14345;48.272;25.926;2023-12-07T10:39:47;39.83;;;25.48;;
26750;SDS011;14345;48.272;25.926;2023-12-07T10:42:13;39.13;;;26.20;;
26750;SDS011;14345;48.272;25.926;2023-12-07T10:44:42;36.10;;;25.52;;
26750;SDS011;14345;48.272;25.926;2023-12-07T10:47:11;41.08;;;27.15;;
26750;SDS011;14345;48.272;25.926;2023-12-07T10:49:40;44.05;;;30.02;;
26750;SDS011;14345;48.272;25.926;2023-12-07T10:52:07;40.83;;;27.67;;
26750;SDS011;14345;48.272;25.926;2023-12-07T10:57:29;39.92;;;27.15;;
26750;SDS011;14345;48.272;25.926;2023-12-07T10:59:57;44.50;;;29.27;;
26750;SDS011;14345;48.272;25.926;2023-12-07T11:02:23;42.53;;;27.50;;
26750;SDS011;14345;48.272;25.926;2023-12-07T11:04:52;42.03;;;28.10;;
26750;SDS011;14345;48.272;25.926;2023-12-07T11:07:20;39.33;;;27.67;;
26750;SDS011;14345;48.272;25.926;2023-12-07T11:12:36;40.03;;;27.95;;
26750;SDS011;14345;48.272;25.926;2023-12-07T11:15:04;42.08;;;28.30;;
26750;SDS011;14345;48.272;25.926;2023-12-07T11:17:30;37.60;;;27.15;;
26750;SDS011;14345;48.272;25.926;2023-12-07T11:20:18;37.28;;;26.05;;
26750;SDS011;14345;48.272;25.926;2023-12-07T11:22:44;38.58;;;25.88;;
26750;SDS011;14345;48.272;25.926;2023-12-07T11:25:10;36.67;;;27.33;;
26750;SDS011;14345;48.272;25.926;2023-12-07T11:27:36;37.13;;;27.02;;
26750;SDS011;14345;48.272;25.926;2023-12-07T11:30:03;36.03;;;25.58;;
26750;SDS011;14345;48.272;25.926;2023-12-07T11:32:29;37.42;;;27.05;;
26750;SDS011;14345;48.272;25.926;2023-12-07T11:35:03;40.65;;;27.35;;
26750;SDS011;14345;48.272;25.926;2023-12-07T11:40:17;35.20;;;24.67;;
26750;SDS011;14345;48.272;25.926;2023-12-07T11:42:43;41.65;;;27.88;;
26750;SDS011;14345;48.272;25.926;2023-12-07T11:45:09;35.17;;;24.13;;
26750;SDS011;14345;48.272;25.926;2023-12-07T11:47:35;35.70;;;25.40;;
26750;SDS011;14345;48.272;25.926;2023-12-07T11:50:02;38.70;;;26.00;;
26750;SDS011;14345;48.272;25.926;2023-12-07T11:52:29;39.85;;;27.67;;
26750;SDS011;14345;48.272;25.926;2023-12-07T11:54:55;41.38;;;27.10;;
26750;SDS011;14345;48.272;25.926;2023-12-07T11:57:21;40.33;;;26.30;;
26750;SDS011;14345;48.272;25.926;2023-12-07T11:59:47;35.13;;;24.23;;
26750;SDS011;14345;48.272;25.926;2023-12-07T12:02:13;43.55;;;27.83;;
26750;SDS011;14345;48.272;25.926;2023-12-07T12:04:40;38.35;;;26.20;;
26750;SDS011;14345;48.272;25.926;2023-12-07T12:07:06;35.92;;;24.02;;
26750;SDS011;14345;48.272;25.926;2023-12-07T12:09:32;38.08;;;25.55;;
26750;SDS011;14345;48.272;25.926;2023-12-07T12:11:59;38.92;;;26.33;;
26750;SDS011;14345;48.272;25.926;2023-12-07T12:14:25;45.22;;;27.88;;
26750;SDS011;14345;48.272;25.926;2023-12-07T12:16:51;44.38;;;28.88;;
26750;SDS011;14345;48.272;25.926;2023-12-07T12:19:18;43.90;;;27.67;;
26750;SDS011;14345;48.272;25.926;2023-12-07T12:21:44;46.42;;;29.70;;
26750;SDS011;14345;48.272;25.926;2023-12-07T12:24:11;47.00;;;29.65;;
26750;SDS011;14345;48.272;25.926;2023-12-07T12:26:39;39.78;;;26.90;;
26750;SDS011;14345;48.272;25.926;2023-12-07T12:29:05;42.92;;;28.30;;
26750;SDS011;14345;48.272;25.926;2023-12-07T12:31:33;39.03;;;27.00;;
26750;SDS011;14345;48.272;25.926;2023-12-07T12:34:03;39.22;;;25.75;;
26750;SDS011;14345;48.272;25.926;2023-12-07T12:36:32;41.42;;;26.20;;
26750;SDS011;14345;48.272;25.926;2023-12-07T12:38:58;43.38;;;27.88;;
26750;SDS011;14345;48.272;25.926;2023-12-07T12:41:24;40.28;;;27.38;;
26750;SDS011;14345;48.272;25.926;2023-12-07T12:43:51;42.75;;;27.75;;
26750;SDS011;14345;48.272;25.926;2023-12-07T12:46:17;40.97;;;26.88;;
26750;SDS011;14345;48.272;25.926;2023-12-07T12:51:23;40.90;;;27.25;;
26750;SDS011;14345;48.272;25.926;2023-12-07T12:53:50;45.75;;;28.08;;
26750;SDS011;14345;48.272;25.926;2023-12-07T12:56:17;39.38;;;27.05;;
26750;SDS011;14345;48.272;25.926;2023-12-07T12:58:44;37.13;;;24.60;;
26750;SDS011;14345;48.272;25.926;2023-12-07T13:01:10;33.95;;;23.17;;
26750;SDS011;14345;48.272;25.926;2023-12-07T13:03:36;37.45;;;24.33;;
26750;SDS011;14345;48.272;25.926;2023-12-07T13:06:02;35.95;;;24.50;;
26750;SDS011;14345;48.272;25.926;2023-12-07T13:08:28;40.92;;;26.35;;
26750;SDS011;14345;48.272;25.926;2023-12-07T13:10:58;41.85;;;27.00;;
26750;SDS011;14345;48.272;25.926;2023-12-07T13:13:24;37.83;;;25.85;;
26750;SDS011;14345;48.272;25.926;2023-12-07T13:15:50;38.50;;;25.85;;
26750;SDS011;14345;48.272;25.926;2023-12-07T13:18:16;35.42;;;24.10;;
26750;SDS011;14345;48.272;25.926;2023-12-07T13:20:43;39.58;;;27.10;;
26750;SDS011;14345;48.272;25.926;2023-12-07T13:23:09;44.15;;;29.13;;
26750;SDS011;14345;48.272;25.926;2023-12-07T13:25:35;47.05;;;28.98;;
26750;SDS011;14345;48.272;25.926;2023-12-07T13:28:01;46.80;;;31.08;;
26750;SDS011;14345;48.272;25.926;2023-12-07T13:30:29;36.92;;;27.33;;
26750;SDS011;14345;48.272;25.926;2023-12-07T13:33:00;40.30;;;27.08;;
26750;SDS011;14345;48.272;25.926;2023-12-07T13:35:26;39.20;;;27.65;;
26750;SDS011;14345;48.272;25.926;2023-12-07T13:37:52;40.03;;;27.23;;
26750;SDS011;14345;48.272;25.926;2023-12-07T13:40:18;34.65;;;24.80;;
26750;SDS011;14345;48.272;25.926;2023-12-07T13:42:44;39.13;;;26.85;;
26750;SDS011;14345;48.272;25.926;2023-12-07T13:45:10;42.75;;;27.95;;
26750;SDS011;14345;48.272;25.926;2023-12-07T13:47:36;39.20;;;26.35;;
26750;SDS011;14345;48.272;25.926;2023-12-07T13:50:03;43.95;;;29.05;;
26750;SDS011;14345;48.272;25.926;2023-12-07T13:52:30;56.20;;;36.05;;
26750;SDS011;14345;48.272;25.926;2023-12-07T13:54:57;51.67;;;31.92;;
26750;SDS011;14345;48.272;25.926;2023-12-07T13:57:23;44.28;;;28.60;;
26750;SDS011;14345;48.272;25.926;2023-12-07T13:59:50;43.13;;;28.08;;
26750;SDS011;14345;48.272;25.926;2023-12-07T14:02:16;43.28;;;28.20;;
26750;SDS011;14345;48.272;25.926;2023-12-07T14:04:43;39.45;;;26.95;;
26750;SDS011;14345;48.272;25.926;2023-12-07T14:07:13;44.28;;;26.98;;
26750;SDS011;14345;48.272;25.926;2023-12-07T14:09:41;40.58;;;27.15;;
26750;SDS011;14345;48.272;25.926;2023-12-07T14:12:08;43.53;;;27.67;;
26750;SDS011;14345;48.272;25.926;2023-12-07T14:14:35;42.85;;;27.25;;
26750;SDS011;14345;48.272;25.926;2023-12-07T14:17:02;36.97;;;25.75;;
26750;SDS011;14345;48.272;25.926;2023-12-07T14:19:28;40.88;;;28.90;;